Latest Weather Observations for Port Macquarie Airport

IDN60801

Issued at 9:02 pm EDT Sunday 22 January 2017 (issued every 30 minutes, with the page automatically refreshed every 10 minutes)

About weather observations | Map of weather stations | Latest weather observations for NSW | Other Formats
Station Details ID: 060139 Name: PORT MACQUARIE AIRPORT AWS Lat: -31.43 Lon: 152.87 Height: 4.2 m
Data from the previous 72 hours. | See also: Recent months at Port Macquarie Airport
Date/Time
EDT
Temp
°C
App
Temp
°C
Dew
Point
°C
Rel
Hum
%
Delta-T
°C
Wind Press
QNH
hPa
Press
MSL
hPa
Rain since
9am
mm
Dir  Spd
km/h
Gust
km/h
Spd
kts
Gust
kts
22/09:00pm 23.5 23.8 17.9 71 3.5 NE 13 20 7 11 1017.0 1017.0 0.0
22/08:30pm 23.5 23.2 18.2 72 3.3 NE 17 22 9 12 1016.7 1016.7 0.0
22/08:00pm 23.5 23.8 17.9 71 3.5 NE 13 19 7 10 1016.3 1016.3 0.0
22/07:30pm 23.7 23.2 17.7 69 3.7 NE 17 22 9 12 1016.0 1016.0 0.0
22/07:00pm 24.5 24.1 18.0 67 4.1 NE 17 24 9 13 1015.6 1015.6 0.0
22/06:30pm 25.2 24.4 18.4 66 4.3 ENE 20 26 11 14 1015.5 1015.5 0.0
22/06:00pm 25.2 24.2 17.9 64 4.6 NE 20 26 11 14 1015.4 1015.4 0.0
22/05:30pm 25.5 24.6 17.7 62 4.9 NE 19 28 10 15 1015.3 1015.3 0.0
22/05:00pm 25.7 24.4 18.1 63 4.8 ENE 22 28 12 15 1015.3 1015.3 0.0
22/04:30pm 26.8 26.0 18.4 60 5.3 ENE 20 30 11 16 1015.4 1015.4 0.0
22/04:00pm 26.2 25.1 18.6 63 4.8 ENE 22 30 12 16 1015.6 1015.6 0.0
22/03:30pm 26.5 25.0 17.6 58 5.6 E 22 30 12 16 1015.7 1015.7 0.0
22/03:00pm 27.2 26.0 17.1 54 6.3 E 19 24 10 13 1015.9 1015.9 0.0
22/02:30pm 26.8 25.6 16.1 52 6.6 ENE 17 24 9 13 1016.1 1016.1 0.0
22/02:00pm 27.0 24.7 14.7 47 7.4 E 20 28 11 15 1016.4 1016.4 0.0
22/01:30pm 27.5 26.7 17.1 53 6.5 E 17 24 9 13 1016.5 1016.5 0.0
22/01:00pm 26.8 25.0 15.5 50 6.9 ENE 19 24 10 13 1016.9 1016.9 0.0
22/12:30pm 27.0 25.8 16.0 51 6.8 E 17 26 9 14 1017.0 1017.0 0.0
22/12:00pm 26.1 25.0 15.2 51 6.6 ESE 15 20 8 11 1017.2 1017.2 0.0
22/11:30am 27.1 27.1 15.1 47 7.3 ESE 9 17 5 9 1017.3 1017.3 0.0
22/11:00am 26.1 25.6 14.9 50 6.7 SSE 11 17 6 9 1017.5 1017.5 0.0
22/10:30am 26.4 27.3 17.5 58 5.6 S 9 17 5 9 1017.5 1017.5 0.0
22/10:00am 24.9 25.4 16.6 60 5.1 SSE 9 13 5 7 1017.6 1017.6 0.0
22/09:30am 24.7 25.5 17.2 63 4.7 SW 9 15 5 8 1017.5 1017.5 0.0
22/09:00am 23.9 24.4 17.4 67 4.0 SW 11 13 6 7 1017.4 1017.4 0.2
22/08:30am 22.5 23.0 16.5 69 3.7 W 9 13 5 7 1017.3 1017.3 0.2
22/08:00am 21.2 21.8 16.8 76 2.7 WNW 9 11 5 6 1017.0 1017.0 0.2
22/07:30am 19.9 20.8 16.7 82 1.9 W 7 11 4 6 1016.9 1016.9 0.2
22/07:00am 19.0 19.8 16.4 85 1.6 W 7 13 4 7 1016.7 1016.7 0.2
22/06:30am 18.3 19.2 16.5 89 1.1 WNW 7 11 4 6 1016.3 1016.3 0.2
22/06:00am 17.0 17.6 15.7 92 0.8 WSW 7 11 4 6 1016.0 1016.0 0.2
22/05:30am 16.1 17.8 15.1 94 0.6 CALM 0 7 0 4 1015.6 1015.6 0.0
22/05:00am 15.8 16.0 14.7 93 0.6 SW 7 7 4 4 1015.4 1015.4 0.0
22/04:30am 16.3 16.8 15.5 95 0.5 WSW 7 11 4 6 1015.2 1015.2 0.0
22/04:00am 15.8 17.4 14.8 94 0.6 CALM 0 0 0 0 1015.1 1015.1 0.0
22/03:30am 16.1 16.6 15.0 93 0.6 W 6 7 3 4 1015.1 1015.1 0.0
22/03:00am 15.9 16.0 14.4 91 0.9 SSW 7 7 4 4 1015.2 1015.2 0.0
22/02:30am 16.5 17.0 14.9 90 0.9 SW 6 7 3 4 1015.4 1015.4 0.0
22/02:00am 17.9 19.7 16.4 91 0.9 SW 2 6 1 3 1015.7 1015.7 0.0
22/01:30am 17.9 18.6 16.2 90 1.0 SW 7 9 4 5 1015.9 1015.9 0.0
22/01:00am 18.6 19.3 16.2 86 1.4 SW 7 11 4 6 1016.0 1016.0 0.0
22/12:30am 19.8 21.1 17.2 85 1.6 WNW 6 7 3 4 1016.1 1016.1 0.0
22/12:00am 20.4 21.9 18.0 86 1.5 WSW 7 9 4 5 1016.2 1016.2 0.0
 
Date/Time
EDT
Temp
°C
App
Temp
°C
Dew
Point
°C
Rel
Hum
%
Delta-T
°C
Wind Press
QNH
hPa
Press
MSL
hPa
Rain since
9am
mm
Dir  Spd
km/h
Gust
km/h
Spd
kts
Gust
kts
21/11:30pm 20.2 21.7 18.1 88 1.3 W 7 11 4 6 1016.3 1016.3 0.0
21/11:00pm 19.9 20.8 17.5 86 1.5 WNW 9 11 5 6 1016.1 1016.1 0.0
21/10:30pm 20.7 22.2 18.1 85 1.6 SW 7 9 4 5 1015.9 1015.9 0.0
21/10:00pm 20.9 22.3 17.9 83 1.9 WSW 7 11 4 6 1015.7 1015.7 0.0
21/09:30pm 21.4 22.6 18.2 82 2.0 WSW 9 11 5 6 1015.1 1015.1 0.0
21/09:00pm 21.7 23.0 18.5 82 2.0 SW 9 13 5 7 1014.6 1014.6 0.0
21/08:30pm 22.1 22.4 17.9 77 2.6 S 13 22 7 12 1014.1 1014.1 0.0
21/08:00pm 22.6 22.1 17.7 74 3.0 S 17 24 9 13 1013.6 1013.6 0.0
21/07:30pm 23.2 21.9 17.2 69 3.7 S 20 30 11 16 1013.1 1013.1 0.0
21/07:00pm 24.0 22.6 17.0 65 4.3 S 20 28 11 15 1012.6 1012.6 0.0
21/06:30pm 24.4 21.0 15.9 59 5.2 S 28 39 15 21 1012.0 1012.0 0.0
21/06:00pm 25.6 23.2 16.5 57 5.6 S 24 32 13 17 1011.6 1011.6 0.0
21/05:30pm 25.6 22.7 16.2 56 5.8 S 26 33 14 18 1011.2 1011.2 0.0
21/05:00pm 25.9 22.9 15.9 54 6.1 S 26 41 14 22 1011.0 1011.0 0.0
21/04:30pm 25.8 21.5 15.8 54 6.1 SSW 33 46 18 25 1010.9 1010.9 0.0
21/04:00pm 25.9 21.7 15.6 53 6.3 SSW 32 46 17 25 1011.0 1011.0 0.0
21/03:30pm 26.7 22.6 16.0 52 6.6 S 32 46 17 25 1010.8 1010.8 0.0
21/03:25pm 26.6 23.1 15.6 50 6.7 S 28 46 15 25 1010.8 1010.8 0.0
21/03:00pm 26.5 22.3 15.8 51 6.5 S 32 44 17 24 1010.6 1010.6 0.0
21/02:30pm 27.7 24.4 16.9 51 6.7 SSE 30 39 16 21 1010.4 1010.4 0.0
21/02:00pm 26.7 22.8 15.4 50 6.9 S 30 43 16 23 1010.4 1010.4 0.0
21/01:30pm 27.1 24.1 15.8 50 6.9 S 26 39 14 21 1010.2 1010.2 0.0
21/01:00pm 26.9 23.9 16.8 54 6.3 S 28 39 15 21 1010.1 1010.1 0.0
21/12:30pm 26.9 24.0 17.1 55 6.1 S 28 35 15 19 1010.1 1010.1 0.0
21/12:00pm 27.5 24.0 15.5 48 7.3 S 28 37 15 20 1009.9 1009.9 0.0
21/11:30am 26.7 23.5 16.3 53 6.4 SSW 28 37 15 20 1009.7 1009.7 0.0
21/11:00am 25.7 22.5 14.2 49 6.8 SSW 24 35 13 19 1009.6 1009.6 0.0
21/10:30am 26.1 22.9 16.4 55 6.0 SSW 28 39 15 21 1009.4 1009.4 0.0
21/10:00am 25.9 24.1 17.8 61 5.1 SSW 24 33 13 18 1009.1 1009.1 0.0
21/09:30am 25.1 21.8 17.1 61 5.0 SSW 30 37 16 20 1008.8 1008.8 0.0
21/09:00am 24.8 22.4 17.3 63 4.7 SSW 26 37 14 20 1008.6 1008.6 12.2
21/08:30am 23.8 20.8 16.8 65 4.3 SSW 28 39 15 21 1008.3 1008.3 12.2
21/08:00am 23.1 21.7 17.1 69 3.7 SW 20 30 11 16 1008.3 1008.3 12.2
21/07:30am 22.5 21.8 17.4 73 3.1 SW 17 24 9 13 1007.8 1007.8 12.2
21/07:00am 22.4 21.8 17.5 74 3.0 SW 17 24 9 13 1007.4 1007.4 12.2
21/06:30am 22.1 21.9 17.5 75 2.8 SW 15 20 8 11 1006.9 1006.9 12.2
21/06:00am 22.6 21.3 17.3 72 3.3 SW 20 32 11 17 1005.9 1005.9 12.2
21/05:30am 22.9 20.1 17.4 71 3.4 SSW 28 43 15 23 1005.2 1005.2 12.2
21/05:00am 22.9 20.3 17.8 73 3.2 SSW 28 35 15 19 1004.7 1004.7 12.2
21/04:45am 22.9 20.2 17.6 72 3.3 SSW 28 48 15 26 1004.3 1004.3 12.2
21/04:30am 23.2 20.3 17.9 72 3.3 SSW 30 43 16 23 1003.9 1003.9 12.2
21/04:15am 23.2 20.6 18.7 76 2.8 SSW 30 48 16 26 1003.7 1003.7 12.2
21/04:00am 23.2 20.7 19.8 81 2.2 SSW 32 46 17 25 1003.6 1003.6 12.2
21/03:33am 23.5 21.8 20.6 84 1.9 SSW 30 48 16 26 1002.6 1002.6 12.2
21/03:30am 23.5 21.9 20.8 85 1.8 SSW 30 43 16 23 1002.6 1002.6 12.2
21/03:29am 23.4 21.8 20.7 85 1.8 SSW 30 48 16 26 1002.6 1002.6 12.2
21/03:00am 23.8 21.8 21.9 89 1.3 SSW 35 50 19 27 1002.1 1002.1 12.2
21/02:48am 24.0 22.6 22.3 90 1.1 SSW 33 52 18 28 1001.8 1001.8 12.2
21/02:40am 24.2 24.2 23.0 93 0.8 SSW 28 48 15 26 1001.5 1001.5 12.2
21/02:30am 23.9 26.7 23.0 95 0.6 SSW 13 20 7 11 1000.5 1000.5 12.2
21/02:00am 24.1 28.2 23.2 95 0.6 W 7 11 4 6 1000.3 1000.3 12.0
21/01:30am 24.2 29.2 23.2 94 0.7 N 2 9 1 5 999.9 999.9 12.0
21/01:00am 24.2 29.6 23.2 94 0.7 CALM 0 0 0 0 999.7 999.7 12.0
21/12:30am 24.1 29.3 22.9 93 0.8 CALM 0 0 0 0 999.5 999.5 12.0
21/12:00am 24.2 28.0 22.8 92 0.9 S 7 9 4 5 999.2 999.2 12.0
 
Date/Time
EDT
Temp
°C
App
Temp
°C
Dew
Point
°C
Rel
Hum
%
Delta-T
°C
Wind Press
QNH
hPa
Press
MSL
hPa
Rain since
9am
mm
Dir  Spd
km/h
Gust
km/h
Spd
kts
Gust
kts
20/11:30pm 24.7 28.3 23.1 91 1.1 NW 9 13 5 7 998.8 998.8 12.0
20/11:00pm 24.7 26.2 23.1 91 1.1 N 20 26 11 14 998.2 998.2 12.0
20/10:30pm 24.5 26.3 23.3 93 0.8 N 19 24 10 13 998.0 998.0 12.0
20/10:00pm 24.5 27.1 23.3 93 0.8 N 15 20 8 11 998.5 998.5 12.0
20/09:30pm 24.5 26.7 23.3 93 0.8 N 17 22 9 12 998.5 998.5 12.0
20/09:00pm 24.4 26.6 23.2 93 0.8 N 17 22 9 12 998.7 998.7 12.0
20/08:30pm 24.1 26.6 23.2 95 0.6 N 15 20 8 11 998.4 998.4 12.0
20/08:00pm 24.1 27.4 23.2 95 0.6 N 11 15 6 8 998.8 998.8 12.0
20/07:30pm 24.0 26.2 23.3 96 0.5 N 17 26 9 14 998.7 998.7 12.0
20/07:00pm 24.2 26.7 23.2 94 0.7 N 15 24 8 13 998.6 998.6 12.0
20/06:30pm 24.5 27.6 23.6 95 0.6 N 13 15 7 8 998.5 998.5 11.8
20/06:00pm 24.5 27.6 23.6 95 0.6 N 13 15 7 8 998.5 998.5 11.2
20/05:30pm 24.6 27.7 23.6 94 0.7 N 13 20 7 11 999.1 999.1 9.4
20/05:25pm 24.5 27.1 23.3 93 0.8 N 15 20 8 11 999.3 999.3 9.0
20/05:00pm 24.5 27.9 23.3 93 0.8 N 11 19 6 10 999.9 999.9 6.0
20/04:37pm 25.0 28.4 22.7 87 1.5 ENE 9 17 5 9 1000.6 1000.6 1.2
20/04:30pm 25.5 28.1 22.0 81 2.3 E 11 13 6 7 999.2 999.2 0.2
20/04:00pm 27.0 28.9 22.0 74 3.4 NE 15 20 8 11 998.6 998.6 0.0
20/03:30pm 27.6 29.4 21.9 71 3.8 NE 15 19 8 10 998.7 998.7 0.0
20/03:00pm 27.6 29.4 21.9 71 3.8 ENE 15 20 8 11 998.4 998.4 0.0
20/02:30pm 28.4 29.5 21.2 65 4.8 NNE 17 26 9 14 998.6 998.6 0.0
20/02:00pm 28.3 28.4 21.1 65 4.8 NNE 22 30 12 16 999.0 999.0 0.0
20/01:30pm 28.1 26.8 20.6 63 4.9 NNE 28 41 15 22 999.5 999.5 0.0
20/01:00pm 27.9 27.3 20.5 64 4.9 N 24 39 13 21 1000.2 1000.2 0.0
20/12:30pm 28.2 25.3 20.0 61 5.4 N 35 48 19 26 1000.6 1000.6 0.0
20/12:00pm 28.5 26.1 21.0 64 5.0 N 35 46 19 25 1001.3 1001.3 0.0
20/11:30am 26.1 23.5 19.5 67 4.3 NNE 32 43 17 23 1002.1 1002.1 0.0
20/11:10am 26.7 25.2 20.3 68 4.2 N 28 46 15 25 1002.6 1002.6 0.0
20/11:00am 27.4 25.1 20.2 65 4.7 NNE 32 43 17 23 1002.8 1002.8 0.0
20/10:30am 25.9 26.3 20.9 74 3.3 N 20 26 11 14 1003.9 1003.9 0.0
20/10:00am 25.1 24.2 19.9 73 3.4 N 24 30 13 16 1004.4 1004.4 0.0
20/09:30am 25.1 23.6 19.5 71 3.6 N 26 39 14 21 1004.9 1004.9 0.0
20/09:00am 25.8 26.0 20.6 73 3.4 N 20 30 11 16 1005.6 1005.6 0.4
20/08:30am 25.1 25.0 20.8 77 2.8 N 22 33 12 18 1005.8 1005.8 0.4
20/08:00am 23.2 22.7 20.0 82 2.1 N 22 32 12 17 1006.3 1006.3 0.4
20/07:30am 22.1 22.6 20.0 88 1.3 N 17 22 9 12 1006.6 1006.6 0.4
20/07:00am 21.4 21.7 19.7 90 1.1 N 17 22 9 12 1007.0 1007.0 0.4
20/06:30am 21.1 21.4 19.6 91 1.0 N 17 22 9 12 1006.8 1006.8 0.4
20/06:00am 20.6 21.8 19.1 91 0.9 NNE 11 15 6 8 1006.7 1006.7 0.4
20/05:30am 20.8 21.6 19.1 90 1.1 N 13 17 7 9 1006.8 1006.8 0.4
20/05:00am 20.9 22.1 19.0 89 1.2 N 11 15 6 8 1007.0 1007.0 0.4
20/04:30am 21.0 21.8 19.1 89 1.2 N 13 15 7 8 1007.2 1007.2 0.4
20/04:00am 20.9 21.7 19.0 89 1.2 N 13 17 7 9 1007.6 1007.6 0.4
20/03:30am 21.0 21.7 18.9 88 1.3 N 13 15 7 8 1008.1 1008.1 0.4
20/03:00am 21.4 22.5 18.8 85 1.6 N 11 13 6 7 1009.0 1009.0 0.4
20/02:30am 21.6 23.0 18.6 83 1.9 N 9 13 5 7 1009.4 1009.4 0.4
20/02:00am 21.7 23.4 18.5 82 2.0 N 7 9 4 5 1009.8 1009.8 0.4
20/01:30am 21.7 22.9 18.3 81 2.1 N 9 13 5 7 1010.1 1010.1 0.4
20/01:00am 21.8 23.5 18.6 82 2.0 N 7 11 4 6 1010.4 1010.4 0.4
20/12:30am 21.8 22.8 18.6 82 2.0 N 11 15 6 8 1010.8 1010.8 0.4
20/12:00am 21.6 23.1 18.8 84 1.8 N 9 11 5 6 1011.2 1011.2 0.4
 
Date/Time
EDT
Temp
°C
App
Temp
°C
Dew
Point
°C
Rel
Hum
%
Delta-T
°C
Wind Press
QNH
hPa
Press
MSL
hPa
Rain since
9am
mm
Dir  Spd
km/h
Gust
km/h
Spd
kts
Gust
kts
19/11:30pm 21.6 22.7 18.8 84 1.8 N 11 15 6 8 1011.5 1011.5 0.4
19/11:00pm 21.4 22.0 18.6 84 1.8 N 13 17 7 9 1011.8 1011.8 0.4
19/10:30pm 21.9 21.6 18.3 80 2.2 N 17 22 9 12 1011.9 1011.9 0.4
19/10:00pm 22.5 22.8 17.8 75 2.9 NNE 13 19 7 10 1011.8 1011.8 0.4
19/09:30pm 22.6 23.1 17.5 73 3.2 NNE 11 13 6 7 1011.9 1011.9 0.4

Other Formats:

Comma delimited format used in spreadsheet applications
http://www.bom.gov.au/fwo/IDN60801/IDN60801.94786.axf

JavaScript Object Notation format (JSON) in row-major order
http://www.bom.gov.au/fwo/IDN60801/IDN60801.94786.json